Private Wetterstation Sandau
Wetterdaten: Sonntag, 05.08.2012
Datum Zeit Temp. A. Feuchte A. Luftdruck Regen Wind Richtung Richtung Taupunkt Windchill
05.08.2012 00:01 18,2 C 73 % 1013,8 hPa 0,0 l/m 1,4 km/h (1 Bft) O-SO 112 13,3 C 18,2 C
05.08.2012 00:06 18,2 C 73 % 1013,8 hPa 0,0 l/m 0,0 km/h (0 Bft) O-SO 112 13,3 C 18,2 C
05.08.2012 00:11 18,1 C 73 % 1013,8 hPa 0,0 l/m 3,2 km/h (1 Bft) O 90 13,2 C 18,1 C
05.08.2012 00:16 17,9 C 74 % 1013,8 hPa 0,0 l/m 1,1 km/h (1 Bft) O 90 13,2 C 17,9 C
05.08.2012 00:21 17,9 C 74 % 1013,8 hPa 0,0 l/m 1,4 km/h (1 Bft) O 90 13,2 C 17,9 C
05.08.2012 00:26 17,9 C 74 % 1013,8 hPa 0,0 l/m 1,8 km/h (1 Bft) NO 45 13,2 C 17,9 C
05.08.2012 00:31 17,9 C 74 % 1013,7 hPa 0,0 l/m 1,4 km/h (1 Bft) NO 45 13,2 C 17,9 C
05.08.2012 00:36 17,8 C 75 % 1013,8 hPa 0,0 l/m 2,9 km/h (1 Bft) O-NO 67 13,3 C 17,8 C
05.08.2012 00:41 17,7 C 76 % 1013,7 hPa 0,0 l/m 4,3 km/h (1 Bft) O 90 13,4 C 17,7 C
05.08.2012 00:46 17,6 C 76 % 1013,6 hPa 0,0 l/m 2,5 km/h (1 Bft) NO 45 13,3 C 17,6 C
05.08.2012 00:51 17,5 C 76 % 1013,6 hPa 0,0 l/m 4,0 km/h (1 Bft) O-NO 67 13,2 C 17,5 C
05.08.2012 00:56 17,4 C 77 % 1013,5 hPa 0,0 l/m 3,6 km/h (1 Bft) O-NO 67 13,3 C 17,4 C
05.08.2012 01:01 17,3 C 77 % 1013,5 hPa 0,0 l/m 2,5 km/h (1 Bft) NO 45 13,2 C 17,3 C
05.08.2012 01:06 17,3 C 77 % 1013,5 hPa 0,0 l/m 1,1 km/h (1 Bft) O-NO 67 13,2 C 17,3 C
05.08.2012 01:11 17,3 C 77 % 1013,4 hPa 0,0 l/m 2,2 km/h (1 Bft) O 90 13,2 C 17,3 C
05.08.2012 01:16 17,1 C 78 % 1013,4 hPa 0,0 l/m 4,3 km/h (1 Bft) O-NO 67 13,2 C 17,1 C
05.08.2012 01:21 17,0 C 78 % 1013,4 hPa 0,0 l/m 2,2 km/h (1 Bft) O-NO 67 13,1 C 17,0 C
05.08.2012 01:26 16,9 C 78 % 1013,4 hPa 0,0 l/m 3,6 km/h (1 Bft) O 90 13,0 C 16,9 C
05.08.2012 01:31 16,9 C 78 % 1013,2 hPa 0,0 l/m 4,7 km/h (1 Bft) O-NO 67 13,0 C 16,9 C
05.08.2012 01:36 16,9 C 78 % 1013,2 hPa 0,0 l/m 7,2 km/h (2 Bft) O-NO 67 13,0 C 16,9 C
05.08.2012 01:41 16,9 C 79 % 1013,1 hPa 0,0 l/m 1,4 km/h (1 Bft) O-NO 67 13,2 C 16,9 C
05.08.2012 01:46 16,9 C 79 % 1013,1 hPa 0,0 l/m 2,5 km/h (1 Bft) O-NO 67 13,2 C 16,9 C
05.08.2012 01:51 16,9 C 79 % 1013,0 hPa 0,0 l/m 2,5 km/h (1 Bft) O-NO 67 13,2 C 16,9 C
05.08.2012 01:56 16,9 C 79 % 1013,0 hPa 0,0 l/m 3,6 km/h (1 Bft) O-NO 67 13,2 C 16,9 C
05.08.2012 02:01 16,9 C 79 % 1012,8 hPa 0,0 l/m 3,6 km/h (1 Bft) O-NO 67 13,2 C 16,9 C
05.08.2012 02:06 16,9 C 79 % 1012,8 hPa 0,0 l/m 5,4 km/h (1 Bft) O 90 13,2 C 16,9 C
05.08.2012 02:11 16,8 C 79 % 1012,8 hPa 0,0 l/m 5,4 km/h (1 Bft) O 90 13,1 C 16,8 C
05.08.2012 02:16 16,7 C 80 % 1012,9 hPa 0,0 l/m 0,0 km/h (0 Bft) NO 45 13,2 C 16,7 C
05.08.2012 02:21 16,6 C 80 % 1012,8 hPa 0,0 l/m 1,4 km/h (1 Bft) NO 45 13,1 C 16,6 C
05.08.2012 02:26 16,6 C 80 % 1012,8 hPa 0,0 l/m 2,2 km/h (1 Bft) O-NO 67 13,1 C 16,6 C
05.08.2012 02:31 16,5 C 81 % 1012,9 hPa 0,0 l/m 5,8 km/h (2 Bft) O-NO 67 13,2 C 16,5 C
05.08.2012 02:36 16,4 C 81 % 1012,8 hPa 0,0 l/m 1,8 km/h (1 Bft) O 90 13,1 C 16,4 C
05.08.2012 02:41 16,4 C 81 % 1012,8 hPa 0,0 l/m 1,4 km/h (1 Bft) O-NO 67 13,1 C 16,4 C
05.08.2012 02:46 16,3 C 82 % 1012,8 hPa 0,0 l/m 4,0 km/h (1 Bft) O-NO 67 13,2 C 16,3 C
05.08.2012 02:51 16,3 C 82 % 1012,8 hPa 0,0 l/m 3,6 km/h (1 Bft) O-SO 112 13,2 C 16,3 C
05.08.2012 02:56 16,3 C 82 % 1012,8 hPa 0,0 l/m 2,2 km/h (1 Bft) O 90 13,2 C 16,3 C
05.08.2012 03:01 16,2 C 82 % 1012,8 hPa 0,0 l/m 4,3 km/h (1 Bft) O 90 13,1 C 16,2 C
05.08.2012 03:06 16,1 C 83 % 1012,8 hPa 0,0 l/m 2,2 km/h (1 Bft) O-NO 67 13,2 C 16,1 C
05.08.2012 03:11 16,1 C 83 % 1012,8 hPa 0,0 l/m 4,0 km/h (1 Bft) O-NO 67 13,2 C 16,1 C
05.08.2012 03:16 16,0 C 83 % 1012,7 hPa 0,0 l/m 0,0 km/h (0 Bft) O-NO 67 13,1 C 16,0 C
05.08.2012 03:21 16,0 C 83 % 1012,5 hPa 0,0 l/m 2,2 km/h (1 Bft) O-NO 67 13,1 C 16,0 C
05.08.2012 03:26 15,9 C 84 % 1012,6 hPa 0,0 l/m 0,0 km/h (0 Bft) O 90 13,2 C 15,9 C
05.08.2012 03:31 15,9 C 84 % 1012,5 hPa 0,0 l/m 3,2 km/h (1 Bft) O-NO 67 13,2 C 15,9 C
05.08.2012 03:36 15,9 C 84 % 1012,5 hPa 0,0 l/m 2,2 km/h (1 Bft) O 90 13,2 C 15,9 C
05.08.2012 03:41 15,9 C 84 % 1012,4 hPa 0,0 l/m 0,0 km/h (0 Bft) O-NO 67 13,2 C 15,9 C
05.08.2012 03:46 15,9 C 84 % 1012,4 hPa 0,0 l/m 0,0 km/h (0 Bft) O-NO 67 13,2 C 15,9 C
05.08.2012 03:51 15,9 C 84 % 1012,4 hPa 0,0 l/m 0,0 km/h (0 Bft) O 90 13,2 C 15,9 C
05.08.2012 03:56 15,9 C 84 % 1012,2 hPa 0,0 l/m 4,7 km/h (1 Bft) O 90 13,2 C 15,9 C
05.08.2012 04:01 15,9 C 84 % 1012,3 hPa 0,0 l/m 4,7 km/h (1 Bft) O 90 13,2 C 15,9 C
05.08.2012 04:06 15,9 C 84 % 1012,4 hPa 0,0 l/m 1,4 km/h (1 Bft) O 90 13,2 C 15,9 C
05.08.2012 04:11 15,9 C 85 % 1012,4 hPa 0,0 l/m 0,0 km/h (0 Bft) O-NO 67 13,4 C 15,9 C
05.08.2012 04:16 15,9 C 85 % 1012,4 hPa 0,0 l/m 1,1 km/h (1 Bft) O-NO 67 13,4 C 15,9 C
05.08.2012 04:21 15,9 C 85 % 1012,4 hPa 0,0 l/m 4,3 km/h (1 Bft) O 90 13,4 C 15,9 C
05.08.2012 04:26 15,9 C 85 % 1012,3 hPa 0,0 l/m 1,4 km/h (1 Bft) O-NO 67 13,4 C 15,9 C
05.08.2012 04:31 15,9 C 85 % 1012,3 hPa 0,0 l/m 2,2 km/h (1 Bft) O-NO 67 13,4 C 15,9 C
05.08.2012 04:36 15,9 C 85 % 1012,4 hPa 0,0 l/m 2,5 km/h (1 Bft) O-NO 67 13,4 C 15,9 C
05.08.2012 04:41 15,9 C 86 % 1012,4 hPa 0,0 l/m 2,9 km/h (1 Bft) O 90 13,6 C 15,9 C
05.08.2012 04:46 15,8 C 86 % 1012,4 hPa 0,0 l/m 2,5 km/h (1 Bft) O 90 13,5 C 15,8 C
05.08.2012 04:51 15,8 C 86 % 1012,4 hPa 0,0 l/m 8,6 km/h (2 Bft) O 90 13,5 C 15,8 C
05.08.2012 04:56 15,8 C 87 % 1012,3 hPa 0,0 l/m 4,3 km/h (1 Bft) O-NO 67 13,6 C 15,8 C
05.08.2012 05:01 15,8 C 87 % 1012,3 hPa 0,0 l/m 6,5 km/h (2 Bft) O-SO 112 13,6 C 15,8 C
05.08.2012 05:06 15,7 C 87 % 1012,1 hPa 0,0 l/m 4,3 km/h (1 Bft) O-NO 67 13,5 C 15,7 C
05.08.2012 05:11 15,7 C 87 % 1012,2 hPa 0,0 l/m 1,1 km/h (1 Bft) O-NO 67 13,5 C 15,7 C
05.08.2012 05:16 15,7 C 87 % 1012,3 hPa 0,0 l/m 3,2 km/h (1 Bft) NO 45 13,5 C 15,7 C
05.08.2012 05:21 15,7 C 87 % 1012,1 hPa 0,0 l/m 4,7 km/h (1 Bft) O-NO 67 13,5 C 15,7 C
05.08.2012 05:26 15,6 C 87 % 1012,2 hPa 0,0 l/m 4,0 km/h (1 Bft) O-NO 67 13,4 C 15,6 C
05.08.2012 05:31 15,6 C 88 % 1012,2 hPa 0,0 l/m 5,0 km/h (1 Bft) O-NO 67 13,6 C 15,6 C
05.08.2012 05:36 15,6 C 88 % 1012,2 hPa 0,0 l/m 4,0 km/h (1 Bft) NO 45 13,6 C 15,6 C
05.08.2012 05:41 15,6 C 88 % 1012,1 hPa 0,0 l/m 4,7 km/h (1 Bft) O-NO 67 13,6 C 15,6 C
05.08.2012 05:46 15,6 C 88 % 1012,1 hPa 0,0 l/m 5,4 km/h (1 Bft) O-NO 67 13,6 C 15,6 C
05.08.2012 05:51 15,6 C 88 % 1012,2 hPa 0,0 l/m 7,6 km/h (2 Bft) O-NO 67 13,6 C 15,6 C
05.08.2012 05:56 15,5 C 88 % 1012,2 hPa 0,0 l/m 1,1 km/h (1 Bft) O-NO 67 13,5 C 15,5 C
05.08.2012 06:01 15,6 C 88 % 1012,1 hPa 0,0 l/m 0,0 km/h (0 Bft) O-NO 67 13,6 C 15,6 C
05.08.2012 06:06 15,6 C 88 % 1012,2 hPa 0,0 l/m 0,0 km/h (0 Bft) O-NO 67 13,6 C 15,6 C
05.08.2012 06:11 15,6 C 88 % 1012,2 hPa 0,0 l/m 0,0 km/h (0 Bft) O-NO 67 13,6 C 15,6 C
05.08.2012 06:16 15,6 C 88 % 1012,3 hPa 0,0 l/m 0,0 km/h (0 Bft) O-NO 67 13,6 C 15,6 C
05.08.2012 06:21 15,7 C 87 % 1012,3 hPa 0,0 l/m 0,0 km/h (0 Bft) O-NO 67 13,5 C 15,7 C
05.08.2012 06:26 15,7 C 87 % 1012,4 hPa 0,0 l/m 1,1 km/h (1 Bft) NW 315 13,5 C 15,7 C
05.08.2012 06:31 15,8 C 87 % 1012,4 hPa 0,0 l/m 0,0 km/h (0 Bft) NW 315 13,6 C 15,8 C
05.08.2012 06:36 15,9 C 87 % 1012,4 hPa 0,0 l/m 0,0 km/h (0 Bft) N-NO 22 13,7 C 15,9 C
05.08.2012 06:41 15,9 C 88 % 1012,3 hPa 0,0 l/m 3,6 km/h (1 Bft) N-NO 22 13,9 C 15,9 C
05.08.2012 06:46 16,1 C 88 % 1012,4 hPa 0,0 l/m 2,5 km/h (1 Bft) N-NO 22 14,1 C 16,1 C
05.08.2012 06:51 16,3 C 88 % 1012,2 hPa 0,0 l/m 1,4 km/h (1 Bft) N-NW 337 14,3 C 16,3 C
05.08.2012 06:56 16,5 C 88 % 1012,2 hPa 0,0 l/m 1,4 km/h (1 Bft) NO 45 14,5 C 16,5 C
05.08.2012 07:01 17,0 C 87 % 1012,2 hPa 0,0 l/m 0,0 km/h (0 Bft) N 360 14,8 C 17,0 C
05.08.2012 07:06 17,4 C 86 % 1012,1 hPa 0,0 l/m 2,5 km/h (1 Bft) NO 45 15,0 C 17,4 C
05.08.2012 07:11 17,8 C 85 % 1012,0 hPa 0,0 l/m 4,7 km/h (1 Bft) NO 45 15,2 C 17,8 C
05.08.2012 07:16 18,1 C 84 % 1012,0 hPa 0,0 l/m 1,8 km/h (1 Bft) N-NO 22 15,4 C 18,1 C
05.08.2012 07:21 18,3 C 83 % 1011,9 hPa 0,0 l/m 2,5 km/h (1 Bft) O-NO 67 15,4 C 18,3 C
05.08.2012 07:26 18,1 C 83 % 1011,8 hPa 0,0 l/m 4,3 km/h (1 Bft) O-NO 67 15,2 C 18,1 C
05.08.2012 07:31 17,9 C 83 % 1011,8 hPa 0,0 l/m 2,2 km/h (1 Bft) NO 45 15,0 C 17,9 C
05.08.2012 07:36 17,7 C 84 % 1011,7 hPa 0,0 l/m 2,5 km/h (1 Bft) O-NO 67 15,0 C 17,7 C
05.08.2012 07:41 17,6 C 84 % 1011,7 hPa 0,0 l/m 3,2 km/h (1 Bft) O 90 14,9 C 17,6 C
05.08.2012 07:46 17,6 C 84 % 1011,7 hPa 0,0 l/m 4,0 km/h (1 Bft) NO 45 14,9 C 17,6 C
05.08.2012 07:51 17,6 C 85 % 1011,7 hPa 0,0 l/m 2,5 km/h (1 Bft) NO 45 15,0 C 17,6 C
05.08.2012 07:56 17,9 C 85 % 1011,8 hPa 0,0 l/m 1,8 km/h (1 Bft) NO 45 15,3 C 17,9 C
05.08.2012 08:01 18,2 C 84 % 1011,8 hPa 0,0 l/m 2,5 km/h (1 Bft) NO 45 15,4 C 18,2 C
05.08.2012 08:06 18,4 C 83 % 1011,8 hPa 0,0 l/m 2,9 km/h (1 Bft) N-NO 22 15,5 C 18,4 C
05.08.2012 08:11 18,6 C 83 % 1011,9 hPa 0,0 l/m 3,2 km/h (1 Bft) O-NO 67 15,7 C 18,6 C
05.08.2012 08:16 18,7 C 83 % 1011,9 hPa 0,0 l/m 4,3 km/h (1 Bft) O-NO 67 15,8 C 18,7 C
05.08.2012 08:21 18,7 C 82 % 1012,0 hPa 0,0 l/m 7,2 km/h (2 Bft) O-SO 112 15,6 C 18,7 C
05.08.2012 08:26 18,6 C 82 % 1011,8 hPa 0,0 l/m 2,9 km/h (1 Bft) O-NO 67 15,5 C 18,6 C
05.08.2012 08:31 18,6 C 83 % 1011,8 hPa 0,0 l/m 2,5 km/h (1 Bft) NO 45 15,7 C 18,6 C
05.08.2012 08:36 18,6 C 83 % 1011,8 hPa 0,0 l/m 6,1 km/h (2 Bft) NO 45 15,7 C 18,6 C
05.08.2012 08:41 18,6 C 83 % 1011,8 hPa 0,0 l/m 0,0 km/h (0 Bft) S-SO 157 15,7 C 18,6 C
05.08.2012 08:46 18,7 C 83 % 1011,9 hPa 0,0 l/m 4,0 km/h (1 Bft) NO 45 15,8 C 18,7 C
05.08.2012 08:51 18,8 C 83 % 1011,8 hPa 0,0 l/m 3,6 km/h (1 Bft) O-NO 67 15,8 C 18,8 C
05.08.2012 08:56 18,8 C 83 % 1011,8 hPa 0,0 l/m 7,2 km/h (2 Bft) O-SO 112 15,8 C 18,8 C
05.08.2012 09:01 18,8 C 83 % 1011,8 hPa 0,0 l/m 3,6 km/h (1 Bft) O 90 15,8 C 18,8 C
05.08.2012 09:06 18,8 C 83 % 1011,7 hPa 0,0 l/m 3,6 km/h (1 Bft) O-NO 67 15,8 C 18,8 C
05.08.2012 09:11 18,8 C 83 % 1011,6 hPa 0,0 l/m 0,0 km/h (0 Bft) O 90 15,8 C 18,8 C
05.08.2012 09:16 18,8 C 83 % 1011,7 hPa 0,0 l/m 3,6 km/h (1 Bft) O 90 15,8 C 18,8 C
05.08.2012 09:21 18,8 C 83 % 1011,6 hPa 0,0 l/m 0,0 km/h (0 Bft) O-NO 67 15,8 C 18,8 C
05.08.2012 09:26 18,9 C 83 % 1011,7 hPa 0,0 l/m 0,0 km/h (0 Bft) O-NO 67 15,9 C 18,9 C
05.08.2012 09:31 18,9 C 83 % 1011,7 hPa 0,0 l/m 1,4 km/h (1 Bft) O-NO 67 15,9 C 18,9 C
05.08.2012 09:36 18,9 C 82 % 1011,7 hPa 0,0 l/m 6,5 km/h (2 Bft) O-SO 112 15,8 C 18,9 C
05.08.2012 09:41 18,9 C 83 % 1011,7 hPa 0,0 l/m 2,5 km/h (1 Bft) SO 135 15,9 C 18,9 C
05.08.2012 09:46 18,9 C 83 % 1011,6 hPa 0,0 l/m 5,0 km/h (1 Bft) O-NO 67 15,9 C 18,9 C
05.08.2012 09:51 18,9 C 83 % 1011,6 hPa 0,0 l/m 2,2 km/h (1 Bft) O-NO 67 15,9 C 18,9 C
05.08.2012 09:56 18,9 C 83 % 1011,5 hPa 0,0 l/m 5,0 km/h (1 Bft) NO 45 15,9 C 18,9 C
05.08.2012 10:01 18,9 C 83 % 1011,5 hPa 0,0 l/m 0,0 km/h (0 Bft) NO 45 15,9 C 18,9 C
05.08.2012 10:06 19,0 C 83 % 1011,6 hPa 0,0 l/m 4,0 km/h (1 Bft) O 90 16,0 C 19,0 C
05.08.2012 10:11 19,0 C 83 % 1011,7 hPa 0,0 l/m 4,0 km/h (1 Bft) O-NO 67 16,0 C 19,0 C
05.08.2012 10:16 19,0 C 83 % 1011,6 hPa 0,0 l/m 5,8 km/h (2 Bft) O 90 16,0 C 19,0 C
05.08.2012 10:21 19,1 C 83 % 1011,8 hPa 0,0 l/m 6,5 km/h (2 Bft) O 90 16,1 C 19,1 C
05.08.2012 10:26 19,1 C 83 % 1011,6 hPa 0,0 l/m 4,0 km/h (1 Bft) NO 45 16,1 C 19,1 C
05.08.2012 10:31 19,1 C 83 % 1011,6 hPa 0,0 l/m 4,7 km/h (1 Bft) O 90 16,1 C 19,1 C
05.08.2012 10:36 19,1 C 83 % 1011,7 hPa 0,0 l/m 2,5 km/h (1 Bft) O-NO 67 16,1 C 19,1 C
05.08.2012 10:41 19,2 C 83 % 1011,9 hPa 0,0 l/m 2,5 km/h (1 Bft) O-SO 112 16,2 C 19,2 C
05.08.2012 10:46 19,2 C 83 % 1011,8 hPa 0,0 l/m 0,0 km/h (0 Bft) O-NO 67 16,2 C 19,2 C
05.08.2012 10:51 19,3 C 84 % 1012,3 hPa 0,0 l/m 4,0 km/h (1 Bft) SW 225 16,5 C 19,3 C
05.08.2012 10:56 19,3 C 84 % 1012,5 hPa 0,0 l/m 3,6 km/h (1 Bft) S 180 16,5 C 19,3 C
05.08.2012 11:01 19,3 C 84 % 1012,8 hPa 0,0 l/m 8,3 km/h (2 Bft) SW 225 16,5 C 19,3 C
05.08.2012 11:06 19,2 C 85 % 1012,8 hPa 0,0 l/m 10,8 km/h (2 Bft) W-SW 247 16,6 C 19,2 C
05.08.2012 11:11 19,1 C 85 % 1012,8 hPa 0,0 l/m 9,7 km/h (2 Bft) S-SW 202 16,5 C 19,1 C
05.08.2012 11:16 19,1 C 85 % 1012,8 hPa 0,5 l/m 6,5 km/h (2 Bft) W 270 16,5 C 19,1 C
05.08.2012 11:21 19,0 C 86 % 1012,8 hPa 0,0 l/m 8,6 km/h (2 Bft) W-SW 247 16,6 C 19,0 C
05.08.2012 11:26 18,9 C 86 % 1012,8 hPa 0,0 l/m 4,7 km/h (1 Bft) S-SW 202 16,5 C 18,9 C
05.08.2012 11:31 18,9 C 86 % 1012,9 hPa 0,0 l/m 0,0 km/h (0 Bft) W-SW 247 16,5 C 18,9 C
05.08.2012 11:36 18,9 C 86 % 1012,7 hPa 0,5 l/m 2,2 km/h (1 Bft) W-NW 292 16,5 C 18,9 C
05.08.2012 11:41 18,9 C 86 % 1012,8 hPa 0,5 l/m 2,9 km/h (1 Bft) W-NW 292 16,5 C 18,9 C
05.08.2012 11:46 18,9 C 86 % 1012,6 hPa 0,0 l/m 0,0 km/h (0 Bft) W 270 16,5 C 18,9 C
05.08.2012 11:51 18,9 C 86 % 1012,4 hPa 0,0 l/m 1,1 km/h (1 Bft) N-NO 22 16,5 C 18,9 C
05.08.2012 11:56 18,9 C 87 % 1012,4 hPa 0,5 l/m 0,0 km/h (0 Bft) NW 315 16,7 C 18,9 C
05.08.2012 12:01 18,9 C 87 % 1012,5 hPa 0,0 l/m 1,8 km/h (1 Bft) NW 315 16,7 C 18,9 C
05.08.2012 12:06 19,0 C 87 % 1012,4 hPa 0,0 l/m 4,3 km/h (1 Bft) N-NO 22 16,8 C 19,0 C
05.08.2012 12:11 18,9 C 87 % 1012,3 hPa 0,0 l/m 3,6 km/h (1 Bft) N-NO 22 16,7 C 18,9 C
05.08.2012 12:16 18,9 C 87 % 1012,0 hPa 0,0 l/m 1,8 km/h (1 Bft) N 360 16,7 C 18,9 C
05.08.2012 12:21 18,9 C 87 % 1011,8 hPa 0,0 l/m 2,5 km/h (1 Bft) N-NO 22 16,7 C 18,9 C
05.08.2012 12:26 18,9 C 87 % 1012,0 hPa 0,0 l/m 3,6 km/h (1 Bft) N-NO 22 16,7 C 18,9 C
05.08.2012 12:31 18,9 C 87 % 1012,0 hPa 0,0 l/m 0,0 km/h (0 Bft) N-NO 22 16,7 C 18,9 C
05.08.2012 12:36 18,9 C 87 % 1012,1 hPa 0,0 l/m 2,5 km/h (1 Bft) N-NO 22 16,7 C 18,9 C
05.08.2012 12:41 18,9 C 87 % 1012,1 hPa 0,0 l/m 0,0 km/h (0 Bft) N-NW 337 16,7 C 18,9 C
05.08.2012 12:46 18,9 C 87 % 1012,1 hPa 0,0 l/m 0,0 km/h (0 Bft) N 360 16,7 C 18,9 C
05.08.2012 12:51 18,9 C 87 % 1011,9 hPa 0,0 l/m 2,2 km/h (1 Bft) NO 45 16,7 C 18,9 C
05.08.2012 12:56 18,9 C 87 % 1012,0 hPa 0,0 l/m 0,0 km/h (0 Bft) N 360 16,7 C 18,9 C
05.08.2012 13:01 18,9 C 87 % 1012,2 hPa 0,0 l/m 0,0 km/h (0 Bft) N 360 16,7 C 18,9 C
05.08.2012 13:06 18,9 C 87 % 1012,1 hPa 0,0 l/m 0,0 km/h (0 Bft) N 360 16,7 C 18,9 C
05.08.2012 13:11 18,9 C 87 % 1012,1 hPa 0,5 l/m 0,0 km/h (0 Bft) N 360 16,7 C 18,9 C
05.08.2012 13:16 18,9 C 87 % 1012,1 hPa 0,0 l/m 0,0 km/h (0 Bft) O-NO 67 16,7 C 18,9 C
05.08.2012 13:21 18,9 C 88 % 1012,0 hPa 0,0 l/m 6,1 km/h (2 Bft) O-NO 67 16,9 C 18,9 C
05.08.2012 13:26 18,9 C 88 % 1012,1 hPa 0,0 l/m 3,6 km/h (1 Bft) O-NO 67 16,9 C 18,9 C
05.08.2012 13:31 18,9 C 88 % 1011,9 hPa 0,0 l/m 6,1 km/h (2 Bft) NO 45 16,9 C 18,9 C
05.08.2012 13:36 18,9 C 88 % 1011,9 hPa 0,0 l/m 3,2 km/h (1 Bft) O-NO 67 16,9 C 18,9 C
05.08.2012 13:41 18,9 C 88 % 1011,9 hPa 0,0 l/m 4,0 km/h (1 Bft) O-NO 67 16,9 C 18,9 C
05.08.2012 13:46 18,9 C 88 % 1011,9 hPa 0,0 l/m 4,3 km/h (1 Bft) O-NO 67 16,9 C 18,9 C
05.08.2012 13:51 18,9 C 88 % 1011,9 hPa 0,0 l/m 5,8 km/h (2 Bft) NO 45 16,9 C 18,9 C
05.08.2012 13:56 18,9 C 88 % 1011,7 hPa 0,0 l/m 4,7 km/h (1 Bft) NO 45 16,9 C 18,9 C
05.08.2012 14:01 19,1 C 88 % 1011,7 hPa 0,0 l/m 2,9 km/h (1 Bft) NO 45 17,1 C 19,1 C
05.08.2012 14:06 19,2 C 88 % 1011,7 hPa 0,0 l/m 4,7 km/h (1 Bft) O-NO 67 17,2 C 19,2 C
05.08.2012 14:11 19,2 C 88 % 1011,7 hPa 0,0 l/m 6,5 km/h (2 Bft) O-NO 67 17,2 C 19,2 C
05.08.2012 14:16 19,3 C 88 % 1011,6 hPa 0,0 l/m 1,8 km/h (1 Bft) O-NO 67 17,3 C 19,3 C
05.08.2012 14:21 19,4 C 88 % 1011,5 hPa 0,0 l/m 5,8 km/h (2 Bft) O-NO 67 17,4 C 19,4 C
05.08.2012 14:26 19,6 C 88 % 1011,5 hPa 0,0 l/m 3,6 km/h (1 Bft) NO 45 17,6 C 19,6 C
05.08.2012 14:31 19,6 C 88 % 1011,6 hPa 0,0 l/m 2,5 km/h (1 Bft) O-NO 67 17,6 C 19,6 C
05.08.2012 14:36 19,8 C 88 % 1011,7 hPa 0,0 l/m 5,0 km/h (1 Bft) O-NO 67 17,8 C 19,8 C
05.08.2012 14:41 19,9 C 87 % 1011,7 hPa 0,0 l/m 3,2 km/h (1 Bft) O-NO 67 17,7 C 19,9 C
05.08.2012 14:46 20,1 C 87 % 1011,7 hPa 0,0 l/m 0,0 km/h (0 Bft) NO 45 17,9 C 20,1 C
05.08.2012 14:51 20,2 C 86 % 1011,3 hPa 0,0 l/m 2,9 km/h (1 Bft) N-NO 22 17,8 C 20,2 C
05.08.2012 14:56 20,2 C 86 % 1011,3 hPa 0,0 l/m 6,1 km/h (2 Bft) N 360 17,8 C 20,2 C
05.08.2012 15:01 20,2 C 85 % 1011,5 hPa 0,0 l/m 3,2 km/h (1 Bft) N-NO 22 17,6 C 20,2 C
05.08.2012 15:06 20,3 C 85 % 1011,4 hPa 0,0 l/m 2,5 km/h (1 Bft) NO 45 17,7 C 20,3 C
05.08.2012 15:11 20,3 C 84 % 1011,5 hPa 0,0 l/m 4,7 km/h (1 Bft) N 360 17,5 C 20,3 C
05.08.2012 15:16 20,4 C 84 % 1011,5 hPa 0,0 l/m 6,1 km/h (2 Bft) N 360 17,6 C 20,4 C
05.08.2012 15:21 20,3 C 83 % 1011,5 hPa 0,0 l/m 0,0 km/h (0 Bft) N 360 17,3 C 20,3 C
05.08.2012 15:26 20,3 C 83 % 1011,4 hPa 0,0 l/m 1,4 km/h (1 Bft) NO 45 17,3 C 20,3 C
05.08.2012 15:31 20,3 C 83 % 1011,6 hPa 0,0 l/m 0,0 km/h (0 Bft) N-NO 22 17,3 C 20,3 C
05.08.2012 15:36 20,2 C 83 % 1011,5 hPa 0,0 l/m 0,0 km/h (0 Bft) NO 45 17,2 C 20,2 C
05.08.2012 15:41 20,1 C 83 % 1011,6 hPa 0,0 l/m 0,0 km/h (0 Bft) NO 45 17,1 C 20,1 C
05.08.2012 15:46 20,1 C 83 % 1011,7 hPa 0,0 l/m 0,0 km/h (0 Bft) NO 45 17,1 C 20,1 C
05.08.2012 15:51 20,2 C 83 % 1011,7 hPa 0,0 l/m 0,0 km/h (0 Bft) NO 45 17,2 C 20,2 C
05.08.2012 15:56 20,1 C 83 % 1011,9 hPa 0,0 l/m 0,0 km/h (0 Bft) NO 45 17,1 C 20,1 C
05.08.2012 16:01 20,2 C 83 % 1011,8 hPa 0,0 l/m 1,4 km/h (1 Bft) NO 45 17,2 C 20,2 C
05.08.2012 16:06 20,2 C 83 % 1011,6 hPa 0,0 l/m 0,0 km/h (0 Bft) NO 45 17,2 C 20,2 C
05.08.2012 16:11 20,2 C 83 % 1011,6 hPa 0,0 l/m 0,0 km/h (0 Bft) NO 45 17,2 C 20,2 C
05.08.2012 16:16 20,4 C 83 % 1011,6 hPa 0,0 l/m 2,9 km/h (1 Bft) N 360 17,4 C 20,4 C
05.08.2012 16:21 20,4 C 82 % 1011,6 hPa 0,0 l/m 0,0 km/h (0 Bft) O-NO 67 17,2 C 20,4 C
05.08.2012 16:26 20,6 C 82 % 1011,5 hPa 0,0 l/m 2,2 km/h (1 Bft) O-NO 67 17,4 C 20,6 C
05.08.2012 16:31 20,8 C 81 % 1011,4 hPa 0,0 l/m 0,0 km/h (0 Bft) O-NO 67 17,4 C 20,8 C
05.08.2012 16:36 20,9 C 81 % 1011,6 hPa 0,0 l/m 1,4 km/h (1 Bft) O-NO 67 17,5 C 20,9 C
05.08.2012 16:41 21,1 C 80 % 1011,5 hPa 0,0 l/m 2,2 km/h (1 Bft) NO 45 17,5 C 21,1 C
05.08.2012 16:46 21,2 C 80 % 1011,3 hPa 0,0 l/m 0,0 km/h (0 Bft) N-NO 22 17,6 C 21,2 C
05.08.2012 16:51 21,4 C 80 % 1011,2 hPa 0,0 l/m 3,6 km/h (1 Bft) O-NO 67 17,8 C 21,4 C
05.08.2012 16:56 21,4 C 78 % 1011,2 hPa 0,0 l/m 4,7 km/h (1 Bft) NO 45 17,4 C 21,4 C
05.08.2012 17:01 21,8 C 77 % 1011,1 hPa 0,0 l/m 4,7 km/h (1 Bft) O-NO 67 17,6 C 21,8 C
05.08.2012 17:06 22,1 C 77 % 1011,2 hPa 0,0 l/m 1,4 km/h (1 Bft) O-NO 67 17,9 C 22,1 C
05.08.2012 17:11 22,4 C 73 % 1011,1 hPa 0,0 l/m 7,2 km/h (2 Bft) O-NO 67 17,3 C 22,4 C
05.08.2012 17:16 22,4 C 72 % 1011,2 hPa 0,0 l/m 3,6 km/h (1 Bft) NO 45 17,1 C 22,4 C
05.08.2012 17:21 22,5 C 70 % 1011,3 hPa 0,0 l/m 5,4 km/h (1 Bft) O-NO 67 16,7 C 22,5 C
05.08.2012 17:26 22,5 C 70 % 1011,3 hPa 0,0 l/m 11,5 km/h (2 Bft) O-NO 67 16,7 C 22,5 C
05.08.2012 17:31 22,3 C 68 % 1011,1 hPa 0,0 l/m 5,4 km/h (1 Bft) NO 45 16,1 C 22,3 C
05.08.2012 17:36 22,1 C 70 % 1011,1 hPa 0,0 l/m 4,7 km/h (1 Bft) NO 45 16,4 C 22,1 C
05.08.2012 17:41 22,1 C 70 % 1011,1 hPa 0,0 l/m 6,1 km/h (2 Bft) O-NO 67 16,4 C 22,1 C
05.08.2012 17:46 22,3 C 72 % 1011,2 hPa 0,0 l/m 2,2 km/h (1 Bft) NO 45 17,0 C 22,3 C
05.08.2012 17:51 22,6 C 72 % 1011,1 hPa 0,0 l/m 0,0 km/h (0 Bft) SO 135 17,3 C 22,6 C
05.08.2012 17:56 22,8 C 71 % 1011,1 hPa 0,0 l/m 3,6 km/h (1 Bft) O-NO 67 17,3 C 22,8 C
05.08.2012 18:01 22,8 C 71 % 1011,0 hPa 0,0 l/m 5,0 km/h (1 Bft) NO 45 17,3 C 22,8 C
05.08.2012 18:06 22,9 C 71 % 1011,0 hPa 0,0 l/m 7,2 km/h (2 Bft) SO 135 17,4 C 22,9 C
05.08.2012 18:11 23,1 C 71 % 1011,0 hPa 0,0 l/m 7,9 km/h (2 Bft) O-SO 112 17,5 C 23,1 C
05.08.2012 18:16 22,9 C 70 % 1011,1 hPa 0,0 l/m 1,4 km/h (1 Bft) O 90 17,1 C 22,9 C
05.08.2012 18:21 22,9 C 70 % 1011,0 hPa 0,0 l/m 5,4 km/h (1 Bft) O-NO 67 17,1 C 22,9 C
05.08.2012 18:26 22,6 C 71 % 1010,9 hPa 0,0 l/m 4,3 km/h (1 Bft) O-NO 67 17,1 C 22,6 C
05.08.2012 18:31 22,4 C 72 % 1010,9 hPa 0,0 l/m 0,0 km/h (0 Bft) O-SO 112 17,1 C 22,4 C
05.08.2012 18:36 22,2 C 73 % 1010,9 hPa 0,0 l/m 1,8 km/h (1 Bft) O-NO 67 17,1 C 22,2 C
05.08.2012 18:41 22,1 C 74 % 1010,9 hPa 0,0 l/m 7,6 km/h (2 Bft) O-NO 67 17,2 C 22,1 C
05.08.2012 18:46 21,8 C 74 % 1010,8 hPa 0,0 l/m 4,7 km/h (1 Bft) O-NO 67 17,0 C 21,8 C
05.08.2012 18:51 21,8 C 75 % 1010,7 hPa 0,0 l/m 3,6 km/h (1 Bft) SO 135 17,2 C 21,8 C
05.08.2012 18:56 21,7 C 75 % 1010,7 hPa 0,0 l/m 4,0 km/h (1 Bft) NO 45 17,1 C 21,7 C
05.08.2012 19:01 21,6 C 75 % 1010,6 hPa 0,0 l/m 3,6 km/h (1 Bft) NO 45 17,0 C 21,6 C
05.08.2012 19:06 21,6 C 75 % 1010,6 hPa 0,0 l/m 0,0 km/h (0 Bft) O-NO 67 17,0 C 21,6 C
05.08.2012 19:11 21,5 C 76 % 1010,5 hPa 0,0 l/m 4,3 km/h (1 Bft) O-NO 67 17,1 C 21,5 C
05.08.2012 19:16 21,4 C 76 % 1010,8 hPa 0,0 l/m 0,0 km/h (0 Bft) O-NO 67 17,0 C 21,4 C
05.08.2012 19:21 21,3 C 77 % 1010,8 hPa 0,0 l/m 1,8 km/h (1 Bft) O-NO 67 17,1 C 21,3 C
05.08.2012 19:26 21,2 C 77 % 1010,7 hPa 0,0 l/m 1,8 km/h (1 Bft) O-NO 67 17,0 C 21,2 C
05.08.2012 19:31 21,1 C 77 % 1010,7 hPa 0,0 l/m 0,0 km/h (0 Bft) O 90 16,9 C 21,1 C
05.08.2012 19:36 20,9 C 78 % 1010,5 hPa 0,0 l/m 3,2 km/h (1 Bft) SO 135 16,9 C 20,9 C
05.08.2012 19:41 20,9 C 78 % 1010,5 hPa 0,0 l/m 1,8 km/h (1 Bft) O-NO 67 16,9 C 20,9 C
05.08.2012 19:46 20,8 C 79 % 1010,4 hPa 0,0 l/m 3,6 km/h (1 Bft) O-NO 67 17,0 C 20,8 C
05.08.2012 19:51 20,6 C 79 % 1010,2 hPa 0,0 l/m 0,0 km/h (0 Bft) O-NO 67 16,8 C 20,6 C
05.08.2012 19:56 20,6 C 79 % 1010,3 hPa 0,0 l/m 0,0 km/h (0 Bft) O-NO 67 16,8 C 20,6 C
05.08.2012 20:01 20,5 C 80 % 1010,1 hPa 0,0 l/m 3,2 km/h (1 Bft) O-NO 67 16,9 C 20,5 C
05.08.2012 20:06 20,4 C 80 % 1010,1 hPa 0,0 l/m 0,0 km/h (0 Bft) SO 135 16,8 C 20,4 C
05.08.2012 20:11 20,4 C 80 % 1010,2 hPa 0,0 l/m 1,4 km/h (1 Bft) O-NO 67 16,8 C 20,4 C
05.08.2012 20:16 20,3 C 81 % 1010,2 hPa 0,0 l/m 0,0 km/h (0 Bft) O-NO 67 16,9 C 20,3 C
05.08.2012 20:21 20,2 C 81 % 1010,2 hPa 0,0 l/m 0,0 km/h (0 Bft) NO 45 16,8 C 20,2 C
05.08.2012 20:26 20,1 C 81 % 1010,1 hPa 0,0 l/m 0,0 km/h (0 Bft) O-NO 67 16,7 C 20,1 C
05.08.2012 20:31 19,9 C 81 % 1010,2 hPa 0,0 l/m 1,4 km/h (1 Bft) O-NO 67 16,5 C 19,9 C
05.08.2012 20:36 19,9 C 82 % 1010,3 hPa 0,0 l/m 2,5 km/h (1 Bft) O-NO 67 16,7 C 19,9 C
05.08.2012 20:41 19,9 C 82 % 1010,3 hPa 0,0 l/m 0,0 km/h (0 Bft) O-NO 67 16,7 C 19,9 C
05.08.2012 20:46 19,8 C 83 % 1010,3 hPa 0,0 l/m 0,0 km/h (0 Bft) O-NO 67 16,8 C 19,8 C
05.08.2012 20:51 19,8 C 83 % 1010,3 hPa 0,0 l/m 0,0 km/h (0 Bft) NO 45 16,8 C 19,8 C
05.08.2012 20:56 19,6 C 83 % 1010,4 hPa 0,0 l/m 4,0 km/h (1 Bft) O-NO 67 16,6 C 19,6 C
05.08.2012 21:01 19,5 C 84 % 1010,5 hPa 0,0 l/m 2,9 km/h (1 Bft) O-NO 67 16,7 C 19,5 C
05.08.2012 21:06 19,4 C 84 % 1010,5 hPa 0,0 l/m 0,0 km/h (0 Bft) O-NO 67 16,6 C 19,4 C
05.08.2012 21:11 19,4 C 84 % 1010,6 hPa 0,0 l/m 3,6 km/h (1 Bft) O-NO 67 16,6 C 19,4 C
05.08.2012 21:16 19,4 C 84 % 1010,6 hPa 0,0 l/m 3,2 km/h (1 Bft) SO 135 16,6 C 19,4 C
05.08.2012 21:21 19,3 C 84 % 1010,7 hPa 0,0 l/m 0,0 km/h (0 Bft) O 90 16,5 C 19,3 C
05.08.2012 21:26 19,3 C 85 % 1010,6 hPa 0,0 l/m 1,8 km/h (1 Bft) O-NO 67 16,7 C 19,3 C
05.08.2012 21:31 19,2 C 85 % 1010,5 hPa 0,0 l/m 1,8 km/h (1 Bft) O-NO 67 16,6 C 19,2 C
05.08.2012 21:36 19,1 C 85 % 1010,5 hPa 0,0 l/m 1,1 km/h (1 Bft) O-NO 67 16,5 C 19,1 C
05.08.2012 21:41 19,1 C 85 % 1010,5 hPa 0,0 l/m 0,0 km/h (0 Bft) O-NO 67 16,5 C 19,1 C
05.08.2012 21:46 19,0 C 86 % 1010,3 hPa 0,0 l/m 0,0 km/h (0 Bft) NO 45 16,6 C 19,0 C
05.08.2012 21:51 18,9 C 86 % 1010,5 hPa 0,0 l/m 0,0 km/h (0 Bft) O-NO 67 16,5 C 18,9 C
05.08.2012 21:56 18,9 C 86 % 1010,3 hPa 0,0 l/m 0,0 km/h (0 Bft) O-NO 67 16,5 C 18,9 C
05.08.2012 22:01 18,9 C 86 % 1010,4 hPa 0,0 l/m 0,0 km/h (0 Bft) O-NO 67 16,5 C 18,9 C
05.08.2012 22:06 18,8 C 87 % 1010,4 hPa 0,0 l/m 2,5 km/h (1 Bft) O-NO 67 16,6 C 18,8 C
05.08.2012 22:11 18,7 C 87 % 1010,4 hPa 0,0 l/m 3,2 km/h (1 Bft) O-NO 67 16,5 C 18,7 C
05.08.2012 22:16 18,6 C 87 % 1010,2 hPa 0,0 l/m 2,2 km/h (1 Bft) O-NO 67 16,4 C 18,6 C
05.08.2012 22:21 18,5 C 87 % 1010,2 hPa 0,0 l/m 4,3 km/h (1 Bft) NO 45 16,3 C 18,5 C
05.08.2012 22:26 18,4 C 87 % 1010,3 hPa 0,0 l/m 2,2 km/h (1 Bft) O-NO 67 16,2 C 18,4 C
05.08.2012 22:31 18,4 C 88 % 1010,3 hPa 0,0 l/m 4,7 km/h (1 Bft) O-NO 67 16,4 C 18,4 C
05.08.2012 22:36 18,4 C 88 % 1010,3 hPa 0,0 l/m 4,7 km/h (1 Bft) O-NO 67 16,4 C 18,4 C
05.08.2012 22:41 18,3 C 88 % 1010,3 hPa 0,0 l/m 3,6 km/h (1 Bft) O-NO 67 16,3 C 18,3 C
05.08.2012 22:46 18,2 C 88 % 1010,4 hPa 0,0 l/m 0,0 km/h (0 Bft) O-NO 67 16,2 C 18,2 C
05.08.2012 22:51 18,2 C 89 % 1010,4 hPa 0,0 l/m 2,9 km/h (1 Bft) O-NO 67 16,4 C 18,2 C
05.08.2012 22:56 18,1 C 89 % 1010,4 hPa 0,0 l/m 4,7 km/h (1 Bft) O-NO 67 16,3 C 18,1 C
05.08.2012 23:01 18,1 C 89 % 1010,2 hPa 0,0 l/m 4,0 km/h (1 Bft) O-NO 67 16,3 C 18,1 C
05.08.2012 23:06 17,9 C 89 % 1010,1 hPa 0,0 l/m 2,2 km/h (1 Bft) O-NO 67 16,1 C 17,9 C
05.08.2012 23:11 17,9 C 89 % 1010,1 hPa 0,0 l/m 0,0 km/h (0 Bft) O-NO 67 16,1 C 17,9 C
05.08.2012 23:16 17,8 C 89 % 1010,2 hPa 0,0 l/m 2,5 km/h (1 Bft) O-SO 112 16,0 C 17,8 C
05.08.2012 23:21 17,8 C 89 % 1010,2 hPa 0,0 l/m 3,2 km/h (1 Bft) O-NO 67 16,0 C 17,8 C
05.08.2012 23:26 17,8 C 89 % 1010,3 hPa 0,0 l/m 4,0 km/h (1 Bft) O-NO 67 16,0 C 17,8 C
05.08.2012 23:31 17,6 C 89 % 1010,0 hPa 0,0 l/m 3,2 km/h (1 Bft) O-NO 67 15,8 C 17,6 C
05.08.2012 23:36 17,6 C 90 % 1010,1 hPa 0,0 l/m 3,2 km/h (1 Bft) O-NO 67 15,9 C 17,6 C
05.08.2012 23:41 17,5 C 90 % 1010,0 hPa 0,0 l/m 3,6 km/h (1 Bft) O 90 15,8 C 17,5 C
05.08.2012 23:46 17,4 C 90 % 1010,0 hPa 0,0 l/m 0,0 km/h (0 Bft) O 90 15,7 C 17,4 C
05.08.2012 23:51 17,4 C 90 % 1009,9 hPa 0,0 l/m 4,0 km/h (1 Bft) O-NO 67 15,7 C 17,4 C
05.08.2012 23:56 17,3 C 90 % 1010,0 hPa 0,0 l/m 3,2 km/h (1 Bft) O-NO 67 15,6 C 17,3 C
_ Min-Zeit 05:56 17:31 23:51 - 00:06 - - 01:26 05:56
Minimum _ 15,5 C 68 % 1009,9 hPa - 0,0 km/h (0 Bft) - - 13,0 C 15,5 C
_ Max-Zeit 18:11 23:36 00:01 11:16 17:26 - - 17:06 18:11
Maximum _ 23,1 C 90 % 1013,8 hPa 0,5 l/m 11,5 km/h
O-NO (2 Bft)
- - 17,9 C 23,1 C
Durchschnitt _ 18,7 C 83 % 1011,7 hPa #2,6 l/m 2,8 km/h (1 Bft) O-NO - 15,6 C 18,7 C
(c) by David Heller